Bitflower — SBJE — position and weather

sailwx.info

Track history (hours):
 
Tides and Currents Weather Stations Pressure Air Temp Water Temp Dewpoint Dewpoint Depression Visibility Wind Speed Wind Dir Waves Ship Positions

Bitflower

Last reported at 2014-Oct-31 10:18 UTC. Time now 2014-Nov-01 06:20 UTC.
Position N 49°52' W 003°16'.

Length 116 m; draft 6.1 m.

Type: Ship. MMSI: 266009000.

Date/timePositionNaut miles runAvg speedWind from/ knotsBaromVisibWave heightAir tempDewpointWater temp
2014-Oct-31 10:18N 49°52' W 003°16'911.2
2014-Oct-31 09:31N 49°56' W 003°03'1112.1
2014-Oct-31 08:33N 50°00' W 002°46'1313.0
2014-Oct-31 07:33N 50°04' W 002°27'1413.8
2014-Oct-31 06:33N 50°08' W 002°06'1414.1
2014-Oct-31 05:34N 50°12' W 001°45'8311.1
2014-Oct-30 22:08N 50°33' E 000°20'712.3
2014-Oct-30 21:33N 50°35' E 000°31'1212.4
2014-Oct-30 20:33N 50°42' E 000°47'1212.2
2014-Oct-30 19:33N 50°48' E 001°03'1211.4
2014-Oct-30 18:33N 50°55' E 001°18'1010.4
2014-Oct-30 17:33N 51°03' E 001°28'9 8.6
2014-Oct-30 16:33N 51°09' E 001°38'9 9.2
2014-Oct-30 15:33N 51°16' E 001°48'1110.8
2014-Oct-30 14:34N 51°25' E 001°57'1211.8
2014-Oct-30 13:33N 51°34' E 002°09'1313.0
2014-Oct-30 12:32N 51°44' E 002°24'2512.9
2014-Oct-30 10:33N 52°02' E 002°53'2913.5
2014-Oct-30 08:25N 52°04' E 003°40'1011.4
2014-Oct-30 07:33N 52°02' E 003°56'1212.3
2014-Oct-30 06:33N 51°56' E 004°13'5 3.9
2014-Oct-30 05:10N 51°53' E 004°21'0 0.0
2014-Oct-30 04:25N 51°53' E 004°21'0 0.0
2014-Oct-30 03:13N 51°53' E 004°21'0 0.0
2014-Oct-30 02:31N 51°53' E 004°21'0 0.0
2014-Oct-30 01:31N 51°53' E 004°21'0 0.0
2014-Oct-30 00:31N 51°53' E 004°21'0 0.0
2014-Oct-29 23:25N 51°53' E 004°21'0 0.0
2014-Oct-29 22:31N 51°53' E 004°21'0 0.0
2014-Oct-29 21:31N 51°53' E 004°21'0 0.0
2014-Oct-29 20:25N 51°53' E 004°21'0 0.0
2014-Oct-29 19:31N 51°53' E 004°21'0 0.0
2014-Oct-29 18:19N 51°53' E 004°21'0 0.0
2014-Oct-29 17:31N 51°53' E 004°21'0 0.0
2014-Oct-29 16:31N 51°53' E 004°21'0 0.0
2014-Oct-29 15:31N 51°53' E 004°21'0 0.0
2014-Oct-29 14:31N 51°53' E 004°21'0 0.0
2014-Oct-29 13:31N 51°53' E 004°21'0 0.0
2014-Oct-29 12:31N 51°53' E 004°21'0 0.0
2014-Oct-29 11:31N 51°53' E 004°21'0 0.0
2014-Oct-29 10:31N 51°53' E 004°21'0 0.0
2014-Oct-29 09:31N 51°53' E 004°21'0 0.0
2014-Oct-29 08:31N 51°53' E 004°21'0 0.0
2014-Oct-29 07:28N 51°53' E 004°21'0 0.0
2014-Oct-29 06:31N 51°53' E 004°21'1 0.7
2014-Oct-29 05:33N 51°54' E 004°20'1313.2
2014-Oct-29 04:33N 51°60' E 004°01'1211.7
2014-Oct-29 03:31N 51°59' E 003°41'7 1.2
2014-Oct-28 22:04N 51°54' E 003°33'0 0.0
2014-Oct-28 21:28N 51°54' E 003°33'0 0.0
2014-Oct-28 20:30N 51°54' E 003°32'0 0.0
2014-Oct-28 19:16N 51°54' E 003°32'0 0.0
2014-Oct-28 18:30N 51°54' E 003°32'0 0.0
2014-Oct-28 17:30N 51°54' E 003°32'0 0.0
2014-Oct-28 16:18N 51°54' E 003°32'0 0.0
2014-Oct-28 15:27N 51°54' E 003°32'0 0.0
2014-Oct-28 14:33N 51°54' E 003°32'0 0.0
2014-Oct-28 13:33N 51°54' E 003°32'0 0.1
2014-Oct-28 12:16N 51°54' E 003°32'0 0.0
2014-Oct-28 11:33N 51°54' E 003°32'0 0.0
2014-Oct-28 10:27N 51°54' E 003°32'0 0.1
2014-Oct-28 09:18N 51°54' E 003°32'0 0.0
2014-Oct-28 08:15N 51°54' E 003°32'0 0.0
2014-Oct-28 07:18N 51°54' E 003°32'0 0.0
2014-Oct-28 06:30N 51°54' E 003°32'6 6.2
2014-Oct-28 05:33N 51°54' E 003°23'1312.6
2014-Oct-28 04:33N 51°51' E 003°03'1312.7
2014-Oct-28 03:33N 51°48' E 002°43'1312.9
2014-Oct-28 02:31N 51°39' E 002°27'1313.1
2014-Oct-28 01:33N 51°30' E 002°14'1211.6
2014-Oct-28 00:32N 51°19' E 002°06'1110.5
2014-Oct-27 23:32N 51°11' E 001°55'9 9.6
2014-Oct-27 22:33N 51°05' E 001°43'8 8.0
2014-Oct-27 21:33N 50°59' E 001°34'8 7.9
2014-Oct-27 20:31N 50°53' E 001°27'8 8.6
2014-Oct-27 19:33N 50°45' E 001°22'13 9.9
2014-Oct-27 18:16N 50°36' E 001°08'180 3.9
2014-Oct-25 19:31N 50°02' W 003°29'7 7.3
2014-Oct-25 18:33N 50°02' W 003°18'13211.5
2014-Oct-25 07:05N 50°33' E 000°03'1013.2
2014-Oct-25 06:18N 50°36' E 000°18'1013.1
2014-Oct-25 05:33N 50°38' E 000°33'1312.8
2014-Oct-25 04:33N 50°45' E 000°49'1212.2
2014-Oct-25 03:33N 50°53' E 001°05'1111.1
2014-Oct-25 02:32N 51°00' E 001°19'10 9.7
2014-Oct-25 01:33N 51°06' E 001°31'9 9.0
2014-Oct-25 00:34N 51°11' E 001°42'9 9.5
2014-Oct-24 23:34N 51°19' E 001°51'1010.3
2014-Oct-24 22:33N 51°24' E 002°05'1211.6
2014-Oct-24 21:33N 51°22' E 002°24'1312.5
2014-Oct-24 20:29N 51°22' E 002°45'1814.1
2014-Oct-24 19:13N 51°25' E 003°14'1015.2
2014-Oct-24 18:33N 51°25' E 003°30'1111.0
2014-Oct-24 17:33N 51°22' E 003°46'1110.6
2014-Oct-24 16:33N 51°23' E 004°03'9 9.0
2014-Oct-24 15:33N 51°21' E 004°17'0 0.0
2014-Oct-24 14:33N 51°21' E 004°17'1 0.6
2014-Oct-24 13:31N 51°20' E 004°18'5 4.8
2014-Oct-24 12:32N 51°16' E 004°22'0 0.1
2014-Oct-24 11:30N 51°16' E 004°21'0 0.0
2014-Oct-24 10:28N 51°16' E 004°21'0 0.0
2014-Oct-24 09:30N 51°16' E 004°21'0 0.0
2014-Oct-24 08:30N 51°16' E 004°21'0 0.0
2014-Oct-24 07:28N 51°16' E 004°21'0 0.0
2014-Oct-24 06:33N 51°16' E 004°21'0 0.0
2014-Oct-24 05:25N 51°16' E 004°21'0 0.0
2014-Oct-24 04:34N 51°16' E 004°21'0 0.0
2014-Oct-24 03:30N 51°16' E 004°21'0 0.0
2014-Oct-24 02:30N 51°16' E 004°21'0 0.0
2014-Oct-24 01:30N 51°16' E 004°21'0 0.0
2014-Oct-24 00:28N 51°16' E 004°21'0 0.0
2014-Oct-23 23:30N 51°16' E 004°21'0 0.0
2014-Oct-23 22:28N 51°16' E 004°21'0 0.0
2014-Oct-23 21:31N 51°16' E 004°21'0 0.0
2014-Oct-23 20:31N 51°16' E 004°21'0 0.0
2014-Oct-23 19:31N 51°16' E 004°21'0 0.0
2014-Oct-23 18:31N 51°16' E 004°21'0 0.0
2014-Oct-23 17:31N 51°16' E 004°21'0 0.0
2014-Oct-23 16:31N 51°16' E 004°21'0 0.0
2014-Oct-23 15:25N 51°16' E 004°21'0 0.0
2014-Oct-23 14:28N 51°16' E 004°21'0 0.0
2014-Oct-23 13:31N 51°16' E 004°21'0 0.0
2014-Oct-23 12:28N 51°16' E 004°21'0 0.0
2014-Oct-23 11:31N 51°16' E 004°21'0 0.0
2014-Oct-23 10:33N 51°16' E 004°21'0 0.0
2014-Oct-23 09:33N 51°16' E 004°21'0 0.0
2014-Oct-23 08:33N 51°16' E 004°21'0 0.0
2014-Oct-23 07:33N 51°16' E 004°21'3 2.9
2014-Oct-23 06:33N 51°19' E 004°19'2 2.1
2014-Oct-23 05:30N 51°21' E 004°17'3 2.8
2014-Oct-23 04:33N 51°22' E 004°13'7 7.5
2014-Oct-23 03:33N 51°24' E 004°02'8 7.7
2014-Oct-23 02:33N 51°21' E 003°51'1010.3
2014-Oct-23 01:33N 51°26' E 003°37'1010.0
2014-Oct-23 00:33N 51°33' E 003°25'1313.0
2014-Oct-22 23:32N 51°44' E 003°13'8 0.5
2014-Oct-22 09:22N 51°39' E 003°03'2 2.3
2014-Oct-22 08:33N 51°38' E 003°06'6 6.0
2014-Oct-22 07:33N 51°44' E 003°11'101 9.2
2014-Oct-21 20:33N 53°13' E 004°28'1010.5
2014-Oct-21 19:34N 53°23' E 004°35'8 8.3
2014-Oct-21 18:33N 53°30' E 004°43'8 6.0
2014-Oct-21 17:16N 53°32' E 004°55'4 5.4
2014-Oct-21 16:30N 53°34' E 005°01'6 6.8
2014-Oct-21 15:34N 53°36' E 005°12'9 8.5
2014-Oct-21 14:33N 53°39' E 005°25'10 9.6
2014-Oct-21 13:33N 53°42' E 005°41'1010.3
2014-Oct-21 12:33N 53°45' E 005°57'  
Track history (hours):
 
Tides and Currents Weather Stations Pressure Air Temp Water Temp Dewpoint Dewpoint Depression Visibility Wind Speed Wind Dir Waves Ship Positions

Bitflower

Last reported at 2014-Oct-31 10:18 UTC. Time now 2014-Nov-01 06:20 UTC.
Position N 49°52' W 003°16'.

Length 116 m; draft 6.1 m.

Type: Ship. MMSI: 266009000.

Date/timePositionNaut miles runAvg speedWind from/ knotsBaromVisibWave heightAir tempDewpointWater temp
2014-Oct-31 10:18N 49°52' W 003°16'911.2
2014-Oct-31 09:31N 49°56' W 003°03'1112.1
2014-Oct-31 08:33N 50°00' W 002°46'1313.0
2014-Oct-31 07:33N 50°04' W 002°27'1413.8
2014-Oct-31 06:33N 50°08' W 002°06'1414.1
2014-Oct-31 05:34N 50°12' W 001°45'8311.1
2014-Oct-30 22:08N 50°33' E 000°20'712.3
2014-Oct-30 21:33N 50°35' E 000°31'1212.4
2014-Oct-30 20:33N 50°42' E 000°47'1212.2
2014-Oct-30 19:33N 50°48' E 001°03'1211.4
2014-Oct-30 18:33N 50°55' E 001°18'1010.4
2014-Oct-30 17:33N 51°03' E 001°28'9 8.6
2014-Oct-30 16:33N 51°09' E 001°38'9 9.2
2014-Oct-30 15:33N 51°16' E 001°48'1110.8
2014-Oct-30 14:34N 51°25' E 001°57'1211.8
2014-Oct-30 13:33N 51°34' E 002°09'1313.0
2014-Oct-30 12:32N 51°44' E 002°24'2512.9
2014-Oct-30 10:33N 52°02' E 002°53'2913.5
2014-Oct-30 08:25N 52°04' E 003°40'1011.4
2014-Oct-30 07:33N 52°02' E 003°56'1212.3
2014-Oct-30 06:33N 51°56' E 004°13'5 3.9
2014-Oct-30 05:10N 51°53' E 004°21'0 0.0
2014-Oct-30 04:25N 51°53' E 004°21'0 0.0
2014-Oct-30 03:13N 51°53' E 004°21'0 0.0
2014-Oct-30 02:31N 51°53' E 004°21'0 0.0
2014-Oct-30 01:31N 51°53' E 004°21'0 0.0
2014-Oct-30 00:31N 51°53' E 004°21'0 0.0
2014-Oct-29 23:25N 51°53' E 004°21'0 0.0
2014-Oct-29 22:31N 51°53' E 004°21'0 0.0
2014-Oct-29 21:31N 51°53' E 004°21'0 0.0
2014-Oct-29 20:25N 51°53' E 004°21'0 0.0
2014-Oct-29 19:31N 51°53' E 004°21'0 0.0
2014-Oct-29 18:19N 51°53' E 004°21'0 0.0
2014-Oct-29 17:31N 51°53' E 004°21'0 0.0
2014-Oct-29 16:31N 51°53' E 004°21'0 0.0
2014-Oct-29 15:31N 51°53' E 004°21'0 0.0
2014-Oct-29 14:31N 51°53' E 004°21'0 0.0
2014-Oct-29 13:31N 51°53' E 004°21'0 0.0
2014-Oct-29 12:31N 51°53' E 004°21'0 0.0
2014-Oct-29 11:31N 51°53' E 004°21'0 0.0
2014-Oct-29 10:31N 51°53' E 004°21'0 0.0
2014-Oct-29 09:31N 51°53' E 004°21'0 0.0
2014-Oct-29 08:31N 51°53' E 004°21'0 0.0
2014-Oct-29 07:28N 51°53' E 004°21'0 0.0
2014-Oct-29 06:31N 51°53' E 004°21'1 0.7
2014-Oct-29 05:33N 51°54' E 004°20'1313.2
2014-Oct-29 04:33N 51°60' E 004°01'1211.7
2014-Oct-29 03:31N 51°59' E 003°41'7 1.2
2014-Oct-28 22:04N 51°54' E 003°33'0 0.0
2014-Oct-28 21:28N 51°54' E 003°33'0 0.0
2014-Oct-28 20:30N 51°54' E 003°32'0 0.0
2014-Oct-28 19:16N 51°54' E 003°32'0 0.0
2014-Oct-28 18:30N 51°54' E 003°32'0 0.0
2014-Oct-28 17:30N 51°54' E 003°32'0 0.0
2014-Oct-28 16:18N 51°54' E 003°32'0 0.0
2014-Oct-28 15:27N 51°54' E 003°32'0 0.0
2014-Oct-28 14:33N 51°54' E 003°32'0 0.0
2014-Oct-28 13:33N 51°54' E 003°32'0 0.1
2014-Oct-28 12:16N 51°54' E 003°32'0 0.0
2014-Oct-28 11:33N 51°54' E 003°32'0 0.0
2014-Oct-28 10:27N 51°54' E 003°32'0 0.1
2014-Oct-28 09:18N 51°54' E 003°32'0 0.0
2014-Oct-28 08:15N 51°54' E 003°32'0 0.0
2014-Oct-28 07:18N 51°54' E 003°32'0 0.0
2014-Oct-28 06:30N 51°54' E 003°32'6 6.2
2014-Oct-28 05:33N 51°54' E 003°23'1312.6
2014-Oct-28 04:33N 51°51' E 003°03'1312.7
2014-Oct-28 03:33N 51°48' E 002°43'1312.9
2014-Oct-28 02:31N 51°39' E 002°27'1313.1
2014-Oct-28 01:33N 51°30' E 002°14'1211.6
2014-Oct-28 00:32N 51°19' E 002°06'1110.5
2014-Oct-27 23:32N 51°11' E 001°55'9 9.6
2014-Oct-27 22:33N 51°05' E 001°43'8 8.0
2014-Oct-27 21:33N 50°59' E 001°34'8 7.9
2014-Oct-27 20:31N 50°53' E 001°27'8 8.6
2014-Oct-27 19:33N 50°45' E 001°22'13 9.9
2014-Oct-27 18:16N 50°36' E 001°08'180 3.9
2014-Oct-25 19:31N 50°02' W 003°29'7 7.3
2014-Oct-25 18:33N 50°02' W 003°18'13211.5
2014-Oct-25 07:05N 50°33' E 000°03'1013.2
2014-Oct-25 06:18N 50°36' E 000°18'1013.1
2014-Oct-25 05:33N 50°38' E 000°33'1312.8
2014-Oct-25 04:33N 50°45' E 000°49'1212.2
2014-Oct-25 03:33N 50°53' E 001°05'1111.1
2014-Oct-25 02:32N 51°00' E 001°19'10 9.7
2014-Oct-25 01:33N 51°06' E 001°31'9 9.0
2014-Oct-25 00:34N 51°11' E 001°42'9 9.5
2014-Oct-24 23:34N 51°19' E 001°51'1010.3
2014-Oct-24 22:33N 51°24' E 002°05'1211.6
2014-Oct-24 21:33N 51°22' E 002°24'1312.5
2014-Oct-24 20:29N 51°22' E 002°45'1814.1
2014-Oct-24 19:13N 51°25' E 003°14'1015.2
2014-Oct-24 18:33N 51°25' E 003°30'1111.0
2014-Oct-24 17:33N 51°22' E 003°46'1110.6
2014-Oct-24 16:33N 51°23' E 004°03'9 9.0
2014-Oct-24 15:33N 51°21' E 004°17'0 0.0
2014-Oct-24 14:33N 51°21' E 004°17'1 0.6
2014-Oct-24 13:31N 51°20' E 004°18'5 4.8
2014-Oct-24 12:32N 51°16' E 004°22'0 0.1
2014-Oct-24 11:30N 51°16' E 004°21'0 0.0
2014-Oct-24 10:28N 51°16' E 004°21'0 0.0
2014-Oct-24 09:30N 51°16' E 004°21'0 0.0
2014-Oct-24 08:30N 51°16' E 004°21'0 0.0
2014-Oct-24 07:28N 51°16' E 004°21'0 0.0
2014-Oct-24 06:33N 51°16' E 004°21'0 0.0
2014-Oct-24 05:25N 51°16' E 004°21'0 0.0
2014-Oct-24 04:34N 51°16' E 004°21'0 0.0
2014-Oct-24 03:30N 51°16' E 004°21'0 0.0
2014-Oct-24 02:30N 51°16' E 004°21'0 0.0
2014-Oct-24 01:30N 51°16' E 004°21'0 0.0
2014-Oct-24 00:28N 51°16' E 004°21'0 0.0
2014-Oct-23 23:30N 51°16' E 004°21'0 0.0
2014-Oct-23 22:28N 51°16' E 004°21'0 0.0
2014-Oct-23 21:31N 51°16' E 004°21'0 0.0
2014-Oct-23 20:31N 51°16' E 004°21'0 0.0
2014-Oct-23 19:31N 51°16' E 004°21'0 0.0
2014-Oct-23 18:31N 51°16' E 004°21'0 0.0
2014-Oct-23 17:31N 51°16' E 004°21'0 0.0
2014-Oct-23 16:31N 51°16' E 004°21'0 0.0
2014-Oct-23 15:25N 51°16' E 004°21'0 0.0
2014-Oct-23 14:28N 51°16' E 004°21'0 0.0
2014-Oct-23 13:31N 51°16' E 004°21'0 0.0
2014-Oct-23 12:28N 51°16' E 004°21'0 0.0
2014-Oct-23 11:31N 51°16' E 004°21'0 0.0
2014-Oct-23 10:33N 51°16' E 004°21'0 0.0
2014-Oct-23 09:33N 51°16' E 004°21'0 0.0
2014-Oct-23 08:33N 51°16' E 004°21'0 0.0
2014-Oct-23 07:33N 51°16' E 004°21'3 2.9
2014-Oct-23 06:33N 51°19' E 004°19'2 2.1
2014-Oct-23 05:30N 51°21' E 004°17'3 2.8
2014-Oct-23 04:33N 51°22' E 004°13'7 7.5
2014-Oct-23 03:33N 51°24' E 004°02'8 7.7
2014-Oct-23 02:33N 51°21' E 003°51'1010.3
2014-Oct-23 01:33N 51°26' E 003°37'1010.0
2014-Oct-23 00:33N 51°33' E 003°25'1313.0
2014-Oct-22 23:32N 51°44' E 003°13'8 0.5
2014-Oct-22 09:22N 51°39' E 003°03'2 2.3
2014-Oct-22 08:33N 51°38' E 003°06'6 6.0
2014-Oct-22 07:33N 51°44' E 003°11'101 9.2
2014-Oct-21 20:33N 53°13' E 004°28'1010.5
2014-Oct-21 19:34N 53°23' E 004°35'8 8.3
2014-Oct-21 18:33N 53°30' E 004°43'8 6.0
2014-Oct-21 17:16N 53°32' E 004°55'4 5.4
2014-Oct-21 16:30N 53°34' E 005°01'6 6.8
2014-Oct-21 15:34N 53°36' E 005°12'9 8.5
2014-Oct-21 14:33N 53°39' E 005°25'10 9.6
2014-Oct-21 13:33N 53°42' E 005°41'1010.3
2014-Oct-21 12:33N 53°45' E 005°57'  

Dump ship's entire track history